Terminal Aerodrome Forecast
Issued by NWS

Home | Current Version | Previous Version | Text Only | Print | Product List | Glossary On
Versions: 1 2 3 4 5 6 7 8 9 10 11 12 13 14 15 16 17 18 19 20 21 22 23 24 25 26 27 28
907
FTAK31 PAFA 041730
TAFAOT
TAF
PAOT 041730Z 0418/0518 28008KT 1SM BR BKN004 BKN015 OVC100
     FM050300 29006KT P6SM SCT004 BKN015 BKN100=

USA.gov is the U.S. government's official web portal to all federal, state and local government web resources and services.